Time,TemperatureF,DewpointF,PressureIn,WindDirection,WindDirectionDegrees,WindSpeedMPH,WindSpeedGustMPH,Humidity,HourlyPrecipIn,Conditions,Clouds,dailyrainin,SoftwareType,DateUTC
2013-01-30 00:01:00,65.7,63.3,29.99,NNW,333,4.0,4.0,92,0.00,,,0.00,VWS V14.01,2013-01-30 10:01:00,
2013-01-30 00:06:00,65.4,63.0,29.99,North,349,3.0,4.0,92,0.00,,,0.00,VWS V14.01,2013-01-30 10:06:00,
2013-01-30 00:11:00,65.5,62.8,29.99,North,352,5.0,7.0,91,0.00,,,0.00,VWS V14.01,2013-01-30 10:11:00,
2013-01-30 00:16:00,66.0,62.3,29.99,NNW,344,6.0,6.0,88,0.00,,,0.00,VWS V14.01,2013-01-30 10:16:00,
2013-01-30 00:21:00,66.3,62.6,29.99,North,350,7.0,7.0,88,0.00,,,0.00,VWS V14.01,2013-01-30 10:21:00,
2013-01-30 00:26:00,66.4,62.4,29.99,NNW,340,4.0,5.0,87,0.00,,,0.00,VWS V14.01,2013-01-30 10:26:00,
2013-01-30 00:31:00,66.4,62.1,29.99,North,350,4.0,4.0,86,0.00,,,0.00,VWS V14.01,2013-01-30 10:31:00,
2013-01-30 00:37:00,66.4,62.4,29.99,NNE,14,3.0,3.0,87,0.00,,,0.00,VWS V14.01,2013-01-30 10:37:00,
2013-01-30 00:42:00,66.4,62.1,29.99,NNW,347,4.0,5.0,86,0.00,,,0.00,VWS V14.01,2013-01-30 10:42:00,
2013-01-30 00:47:00,66.2,61.9,29.99,NW,324,5.0,5.0,86,0.00,,,0.00,VWS V14.01,2013-01-30 10:47:00,
2013-01-30 00:52:00,66.1,62.1,29.99,NNW,331,3.0,3.0,87,0.00,,,0.00,VWS V14.01,2013-01-30 10:52:00,
2013-01-30 00:57:00,66.1,61.8,29.99,North,349,3.0,4.0,86,0.00,,,0.00,VWS V14.01,2013-01-30 10:57:00,
2013-01-30 01:02:00,66.2,61.9,29.99,NNW,332,5.0,5.0,86,0.00,,,0.00,VWS V14.01,2013-01-30 11:02:00,
2013-01-30 01:07:00,66.2,61.9,29.99,North,351,3.0,4.0,86,0.00,,,0.00,VWS V14.01,2013-01-30 11:07:00,
2013-01-30 01:12:00,66.6,62.0,29.99,NW,321,5.0,5.0,85,0.00,,,0.00,VWS V14.01,2013-01-30 11:12:00,
2013-01-30 01:17:00,66.8,61.8,29.98,North,8,4.0,4.0,84,0.00,,,0.00,VWS V14.01,2013-01-30 11:17:00,
2013-01-30 01:22:00,67.1,61.4,29.98,NW,319,6.0,6.0,82,0.00,,,0.00,VWS V14.01,2013-01-30 11:22:00,
2013-01-30 01:27:00,67.6,60.9,29.98,NNW,348,1.0,1.0,79,0.00,,,0.00,VWS V14.01,2013-01-30 11:27:00,
2013-01-30 01:32:00,67.9,61.5,29.98,NNE,13,3.0,3.0,80,0.00,,,0.00,VWS V14.01,2013-01-30 11:32:00,
2013-01-30 01:38:00,68.0,61.2,29.98,NNE,26,3.0,3.0,79,0.00,,,0.00,VWS V14.01,2013-01-30 11:38:00,
2013-01-30 01:43:00,67.8,61.1,29.98,North,5,4.0,5.0,79,0.00,,,0.00,VWS V14.01,2013-01-30 11:43:00,
2013-01-30 01:48:00,67.2,61.5,29.98,NNW,333,3.0,4.0,82,0.00,,,0.00,VWS V14.01,2013-01-30 11:48:00,
2013-01-30 01:53:00,67.0,61.7,29.98,NNW,340,6.0,6.0,83,0.00,,,0.00,VWS V14.01,2013-01-30 11:53:00,
2013-01-30 01:58:00,66.8,61.5,29.98,NNW,335,4.0,4.0,83,0.00,,,0.00,VWS V14.01,2013-01-30 11:58:00,
2013-01-30 02:03:00,66.4,61.4,29.98,North,8,3.0,4.0,84,0.00,,,0.00,VWS V14.01,2013-01-30 12:03:00,
2013-01-30 02:08:00,66.4,61.4,29.97,NNW,327,5.0,5.0,84,0.00,,,0.00,VWS V14.01,2013-01-30 12:08:00,
2013-01-30 02:13:00,66.5,61.5,29.98,NNW,343,4.0,4.0,84,0.00,,,0.00,VWS V14.01,2013-01-30 12:13:00,
2013-01-30 02:18:00,66.6,61.6,29.98,NW,324,5.0,5.0,84,0.00,,,0.00,VWS V14.01,2013-01-30 12:18:00,
2013-01-30 02:23:00,66.5,61.5,29.98,NNW,347,3.0,4.0,84,0.00,,,0.00,VWS V14.01,2013-01-30 12:23:00,
2013-01-30 02:28:00,66.6,61.3,29.98,North,351,2.0,3.0,83,0.00,,,0.00,VWS V14.01,2013-01-30 12:28:00,
2013-01-30 02:33:00,66.4,61.8,29.98,North,350,3.0,3.0,85,0.00,,,0.00,VWS V14.01,2013-01-30 12:33:00,
2013-01-30 02:38:00,66.5,61.5,29.98,NE,50,0.0,1.0,84,0.00,,,0.00,VWS V14.01,2013-01-30 12:38:00,
2013-01-30 02:43:00,66.7,61.4,29.98,NNE,12,4.0,5.0,83,0.00,,,0.00,VWS V14.01,2013-01-30 12:43:00,
2013-01-30 02:48:00,66.8,61.5,29.97,NNE,25,4.0,4.0,83,0.00,,,0.00,VWS V14.01,2013-01-30 12:48:00,
2013-01-30 02:53:00,66.4,61.8,29.98,North,2,3.0,3.0,85,0.00,,,0.00,VWS V14.01,2013-01-30 12:53:00,
2013-01-30 02:58:00,66.2,61.6,29.98,North,8,2.0,2.0,85,0.00,,,0.00,VWS V14.01,2013-01-30 12:58:00,
2013-01-30 03:03:00,65.9,61.3,29.98,North,350,3.0,4.0,85,0.00,,,0.00,VWS V14.01,2013-01-30 13:03:00,
2013-01-30 03:09:00,65.9,61.6,29.97,NNW,330,3.0,3.0,86,0.00,,,0.00,VWS V14.01,2013-01-30 13:09:00,
2013-01-30 03:14:00,65.9,61.6,29.98,North,7,3.0,3.0,86,0.00,,,0.00,VWS V14.01,2013-01-30 13:14:00,
2013-01-30 03:19:00,65.8,61.2,29.97,North,360,4.0,5.0,85,0.00,,,0.00,VWS V14.01,2013-01-30 13:19:00,
2013-01-30 03:24:00,65.9,60.9,29.97,North,7,4.0,5.0,84,0.00,,,0.00,VWS V14.01,2013-01-30 13:24:00,
2013-01-30 03:29:00,66.1,61.1,29.97,North,5,5.0,5.0,84,0.00,,,0.00,VWS V14.01,2013-01-30 13:29:00,
2013-01-30 03:34:00,66.1,61.1,29.97,NNE,12,2.0,3.0,84,0.00,,,0.00,VWS V14.01,2013-01-30 13:34:00,
2013-01-30 03:39:00,66.1,61.1,29.97,NNE,12,2.0,3.0,84,0.00,,,0.00,VWS V14.01,2013-01-30 13:39:00,
2013-01-30 03:44:00,66.0,61.4,29.97,North,358,3.0,3.0,85,0.00,,,0.00,VWS V14.01,2013-01-30 13:44:00,
2013-01-30 03:49:00,65.9,61.3,29.97,NNW,336,2.0,3.0,85,0.00,,,0.00,VWS V14.01,2013-01-30 13:49:00,
2013-01-30 03:54:00,65.7,61.1,29.97,NNE,17,1.0,1.0,85,0.00,,,0.00,VWS V14.01,2013-01-30 13:54:00,
2013-01-30 03:59:00,65.7,61.1,29.97,NNW,331,3.0,3.0,85,0.00,,,0.00,VWS V14.01,2013-01-30 13:59:00,
2013-01-30 04:04:00,65.6,61.3,29.97,North,3,4.0,5.0,86,0.00,,,0.00,VWS V14.01,2013-01-30 14:04:00,
2013-01-30 04:09:00,66.1,61.5,29.97,NNE,21,4.0,5.0,85,0.00,,,0.00,VWS V14.01,2013-01-30 14:09:00,
2013-01-30 04:14:00,65.9,61.3,29.97,NE,40,3.0,4.0,85,0.00,,,0.00,VWS V14.01,2013-01-30 14:14:00,
2013-01-30 04:19:00,66.1,61.5,29.97,NNE,12,5.0,5.0,85,0.00,,,0.00,VWS V14.01,2013-01-30 14:19:00,
2013-01-30 04:24:00,66.2,61.6,29.97,North,7,2.0,2.0,85,0.00,,,0.00,VWS V14.01,2013-01-30 14:24:00,
2013-01-30 04:29:00,65.9,61.6,29.97,NW,326,3.0,3.0,86,0.00,,,0.00,VWS V14.01,2013-01-30 14:29:00,
2013-01-30 04:35:00,65.7,61.7,29.98,North,2,3.0,3.0,87,0.00,,,0.00,VWS V14.01,2013-01-30 14:35:00,
2013-01-30 04:40:00,65.6,61.6,29.98,North,1,2.0,4.0,87,0.00,,,0.00,VWS V14.01,2013-01-30 14:40:00,
2013-01-30 04:45:00,65.6,61.6,29.98,NNW,348,6.0,6.0,87,0.00,,,0.00,VWS V14.01,2013-01-30 14:45:00,
2013-01-30 04:50:00,65.9,61.9,29.98,North,360,3.0,3.0,87,0.00,,,0.00,VWS V14.01,2013-01-30 14:50:00,
2013-01-30 04:55:00,66.2,62.2,29.98,NNW,332,4.0,4.0,87,0.00,,,0.00,VWS V14.01,2013-01-30 14:55:00,
2013-01-30 05:00:00,66.4,62.4,29.98,North,4,4.0,4.0,87,0.00,,,0.00,VWS V14.01,2013-01-30 15:00:00,
2013-01-30 05:05:00,66.2,62.2,29.98,NNE,16,4.0,4.0,87,0.00,,,0.00,VWS V14.01,2013-01-30 15:05:00,
2013-01-30 05:10:00,66.4,62.7,29.98,NNW,338,4.0,4.0,88,0.00,,,0.00,VWS V14.01,2013-01-30 15:10:00,
2013-01-30 05:15:00,66.5,62.8,29.98,NNE,14,2.0,2.0,88,0.00,,,0.00,VWS V14.01,2013-01-30 15:15:00,
2013-01-30 05:20:00,66.6,62.9,29.98,NNW,341,3.0,3.0,88,0.00,,,0.00,VWS V14.01,2013-01-30 15:20:00,
2013-01-30 05:25:00,66.8,63.1,29.98,North,359,2.0,3.0,88,0.00,,,0.00,VWS V14.01,2013-01-30 15:25:00,
2013-01-30 05:30:00,66.8,63.1,29.98,NNW,348,3.0,3.0,88,0.00,,,0.00,VWS V14.01,2013-01-30 15:30:00,
2013-01-30 05:35:00,66.7,63.0,29.99,NNW,338,5.0,5.0,88,0.00,,,0.00,VWS V14.01,2013-01-30 15:35:00,
2013-01-30 05:40:00,66.8,63.5,29.98,North,351,3.0,3.0,89,0.00,,,0.00,VWS V14.01,2013-01-30 15:40:00,
2013-01-30 05:45:00,66.6,63.3,29.98,North,10,3.0,3.0,89,0.00,,,0.00,VWS V14.01,2013-01-30 15:45:00,
2013-01-30 05:50:00,66.6,63.3,29.98,NNE,21,2.0,2.0,89,0.00,,,0.00,VWS V14.01,2013-01-30 15:50:00,
2013-01-30 05:56:00,66.4,63.1,29.99,North,9,3.0,3.0,89,0.00,,,0.00,VWS V14.01,2013-01-30 15:56:00,
2013-01-30 06:01:00,66.3,63.0,29.99,North,360,2.0,2.0,89,0.00,,,0.00,VWS V14.01,2013-01-30 16:01:00,
2013-01-30 06:06:00,66.2,63.2,29.99,NNE,15,3.0,3.0,90,0.00,,,0.00,VWS V14.01,2013-01-30 16:06:00,
2013-01-30 06:11:00,66.3,63.0,29.99,NNW,329,4.0,4.0,89,0.00,,,0.00,VWS V14.01,2013-01-30 16:11:00,
2013-01-30 06:16:00,66.1,62.8,29.99,North,2,3.0,3.0,89,0.00,,,0.00,VWS V14.01,2013-01-30 16:16:00,
2013-01-30 06:21:00,66.0,62.7,29.99,North,3,3.0,3.0,89,0.00,,,0.00,VWS V14.01,2013-01-30 16:21:00,
2013-01-30 06:26:00,66.3,62.6,29.99,NNE,18,3.0,3.0,88,0.00,,,0.00,VWS V14.01,2013-01-30 16:26:00,
2013-01-30 06:31:00,66.5,62.8,29.99,NNW,345,3.0,4.0,88,0.00,,,0.00,VWS V14.01,2013-01-30 16:31:00,
2013-01-30 06:36:00,66.5,62.8,30.00,North,7,3.0,3.0,88,0.00,,,0.00,VWS V14.01,2013-01-30 16:36:00,
2013-01-30 06:41:00,66.7,62.7,30.00,NNE,16,3.0,3.0,87,0.00,,,0.00,VWS V14.01,2013-01-30 16:41:00,
2013-01-30 06:46:00,67.0,62.7,30.00,NNE,21,1.0,2.0,86,0.00,,,0.00,VWS V14.01,2013-01-30 16:46:00,
2013-01-30 06:51:00,66.9,62.6,30.00,NNE,16,2.0,2.0,86,0.00,,,0.00,VWS V14.01,2013-01-30 16:51:00,
2013-01-30 06:56:00,66.6,62.3,30.00,NNW,340,3.0,3.0,86,0.00,,,0.00,VWS V14.01,2013-01-30 16:56:00,
2013-01-30 07:01:00,66.2,62.2,30.00,North,358,3.0,4.0,87,0.00,,,0.00,VWS V14.01,2013-01-30 17:01:00,
2013-01-30 07:06:00,66.2,62.2,30.00,NNE,23,1.0,1.0,87,0.00,,,0.00,VWS V14.01,2013-01-30 17:06:00,
2013-01-30 07:11:00,66.2,62.2,30.00,NNW,338,2.0,4.0,87,0.00,,,0.00,VWS V14.01,2013-01-30 17:11:00,
2013-01-30 07:16:00,66.2,62.5,30.00,NNE,12,3.0,3.0,88,0.00,,,0.00,VWS V14.01,2013-01-30 17:16:00,
2013-01-30 07:21:00,66.1,62.5,30.01,NNW,331,3.0,3.0,88,0.00,,,0.00,VWS V14.01,2013-01-30 17:21:00,
2013-01-30 07:27:00,65.9,62.2,30.01,NNW,341,4.0,4.0,88,0.00,,,0.00,VWS V14.01,2013-01-30 17:27:00,
2013-01-30 07:32:00,65.8,62.5,30.01,NNW,341,3.0,3.0,89,0.00,,,0.00,VWS V14.01,2013-01-30 17:32:00,
2013-01-30 07:37:00,65.8,62.5,30.01,NNW,338,3.0,3.0,89,0.00,,,0.00,VWS V14.01,2013-01-30 17:37:00,
2013-01-30 07:42:00,65.9,62.6,30.01,North,350,2.0,3.0,89,0.00,,,0.00,VWS V14.01,2013-01-30 17:42:00,
2013-01-30 07:47:00,66.0,63.0,30.01,North,8,4.0,4.0,90,0.00,,,0.00,VWS V14.01,2013-01-30 17:47:00,
2013-01-30 07:52:00,66.1,62.8,30.02,NNW,341,2.0,3.0,89,0.00,,,0.00,VWS V14.01,2013-01-30 17:52:00,
2013-01-30 07:57:00,66.2,62.9,30.02,North,355,1.0,2.0,89,0.00,,,0.00,VWS V14.01,2013-01-30 17:57:00,
2013-01-30 08:02:00,66.4,63.1,30.02,North,357,2.0,2.0,89,0.00,,,0.00,VWS V14.01,2013-01-30 18:02:00,
2013-01-30 08:07:00,66.6,63.3,30.02,North,356,2.0,2.0,89,0.00,,,0.00,VWS V14.01,2013-01-30 18:07:00,
2013-01-30 08:12:00,66.8,63.5,30.02,NNE,20,3.0,3.0,89,0.00,,,0.00,VWS V14.01,2013-01-30 18:12:00,
2013-01-30 08:17:00,67.1,63.4,30.02,NNE,26,3.0,3.0,88,0.00,,,0.00,VWS V14.01,2013-01-30 18:17:00,
2013-01-30 08:22:00,67.5,63.5,30.02,NNE,21,2.0,3.0,87,0.00,,,0.00,VWS V14.01,2013-01-30 18:22:00,
2013-01-30 08:27:00,68.0,63.3,30.02,NNE,24,3.0,4.0,85,0.00,,,0.00,VWS V14.01,2013-01-30 18:27:00,
2013-01-30 08:32:00,68.6,62.9,30.02,NE,50,2.0,2.0,82,0.00,,,0.00,VWS V14.01,2013-01-30 18:32:00,
2013-01-30 08:37:00,69.1,63.0,30.02,NNE,21,4.0,4.0,81,0.00,,,0.00,VWS V14.01,2013-01-30 18:37:00,
2013-01-30 08:42:00,69.5,62.7,30.02,ENE,57,3.0,3.0,79,0.00,,,0.00,VWS V14.01,2013-01-30 18:42:00,
2013-01-30 08:47:00,69.9,62.7,30.02,ENE,58,1.0,1.0,78,0.00,,,0.00,VWS V14.01,2013-01-30 18:47:00,
2013-01-30 08:53:00,70.2,62.7,30.02,East,83,1.0,2.0,77,0.00,,,0.00,VWS V14.01,2013-01-30 18:53:00,
2013-01-30 08:58:00,70.5,63.0,30.02,East,85,2.0,2.0,77,0.00,,,0.00,VWS V14.01,2013-01-30 18:58:00,
2013-01-30 09:03:00,70.9,62.6,30.02,ENE,68,2.0,2.0,75,0.00,,,0.00,VWS V14.01,2013-01-30 19:03:00,
2013-01-30 09:08:00,71.3,63.7,30.03,East,94,4.0,4.0,77,0.00,,,0.00,VWS V14.01,2013-01-30 19:08:00,
2013-01-30 09:13:00,71.1,64.3,30.03,ENE,59,2.0,2.0,79,0.00,,,0.00,VWS V14.01,2013-01-30 19:13:00,
2013-01-30 09:18:00,70.9,65.1,30.03,East,85,4.0,4.0,82,0.00,,,0.00,VWS V14.01,2013-01-30 19:18:00,
2013-01-30 09:23:00,70.7,65.3,30.03,ESE,102,3.0,3.0,83,0.00,,,0.00,VWS V14.01,2013-01-30 19:23:00,
2013-01-30 09:28:00,70.6,65.2,30.04,East,91,4.0,4.0,83,0.00,,,0.00,VWS V14.01,2013-01-30 19:28:00,
2013-01-30 09:33:00,70.7,65.6,30.04,East,90,1.0,2.0,84,0.00,,,0.00,VWS V14.01,2013-01-30 19:33:00,
2013-01-30 09:38:00,70.7,65.6,30.04,ESE,118,3.0,3.0,84,0.00,,,0.00,VWS V14.01,2013-01-30 19:38:00,
2013-01-30 09:43:00,70.6,65.5,30.04,SSE,147,3.0,4.0,84,0.00,,,0.00,VWS V14.01,2013-01-30 19:43:00,
2013-01-30 09:48:00,70.5,65.4,30.05,ESE,120,1.0,2.0,84,0.00,,,0.00,VWS V14.01,2013-01-30 19:48:00,
2013-01-30 09:53:00,70.6,65.2,30.04,SE,144,4.0,5.0,83,0.00,,,0.00,VWS V14.01,2013-01-30 19:53:00,
2013-01-30 09:58:00,70.8,65.0,30.05,ENE,62,4.0,4.0,82,0.00,,,0.00,VWS V14.01,2013-01-30 19:58:00,
2013-01-30 10:04:00,71.2,65.8,30.05,East,99,4.0,6.0,83,0.00,,,0.00,VWS V14.01,2013-01-30 20:04:00,
2013-01-30 10:09:00,71.5,65.7,30.05,SE,126,7.0,7.0,82,0.00,,,0.00,VWS V14.01,2013-01-30 20:09:00,
2013-01-30 10:14:00,71.5,65.7,30.05,ENE,67,2.0,4.0,82,0.00,,,0.00,VWS V14.01,2013-01-30 20:14:00,
2013-01-30 10:19:00,72.0,66.2,30.05,East,82,3.0,5.0,82,0.00,,,0.00,VWS V14.01,2013-01-30 20:19:00,
2013-01-30 10:25:00,71.8,64.9,30.05,ESE,118,3.0,4.0,79,0.00,,,0.00,VWS V14.01,2013-01-30 20:25:00,
2013-01-30 10:30:00,71.9,65.4,30.05,ESE,116,7.0,7.0,80,0.00,,,0.00,VWS V14.01,2013-01-30 20:30:00,
2013-01-30 10:35:00,71.8,65.7,30.04,East,98,4.0,6.0,81,0.00,,,0.00,VWS V14.01,2013-01-30 20:35:00,
2013-01-30 10:40:00,71.7,64.5,30.04,ENE,68,2.0,2.0,78,0.00,,,0.00,VWS V14.01,2013-01-30 20:40:00,
2013-01-30 10:45:00,72.1,65.2,30.04,SSE,151,2.0,3.0,79,0.00,,,0.00,VWS V14.01,2013-01-30 20:45:00,
2013-01-30 10:50:00,72.4,65.9,30.04,East,92,2.0,2.0,80,0.00,,,0.00,VWS V14.01,2013-01-30 20:50:00,
2013-01-30 11:06:00,72.2,65.3,30.04,East,85,2.0,2.0,79,0.00,,,0.00,VWS V14.01,2013-01-30 21:06:00,
2013-01-30 11:11:00,72.4,65.5,30.04,ENE,57,2.0,2.0,79,0.00,,,0.00,VWS V14.01,2013-01-30 21:11:00,
2013-01-30 11:16:00,72.4,65.5,30.04,ENE,62,4.0,4.0,79,0.00,,,0.00,VWS V14.01,2013-01-30 21:16:00,
2013-01-30 11:22:00,72.1,64.9,30.04,SE,142,2.0,2.0,78,0.00,,,0.00,VWS V14.01,2013-01-30 21:22:00,
2013-01-30 11:27:00,72.6,65.7,30.03,ESE,117,2.0,2.0,79,0.00,,,0.00,VWS V14.01,2013-01-30 21:27:00,
2013-01-30 11:32:00,72.8,65.9,30.03,ENE,69,5.0,5.0,79,0.00,,,0.00,VWS V14.01,2013-01-30 21:32:00,
2013-01-30 11:37:00,72.8,66.3,30.03,NE,50,3.0,4.0,80,0.00,,,0.00,VWS V14.01,2013-01-30 21:37:00,
2013-01-30 11:42:00,73.3,66.0,30.03,SE,130,7.0,7.0,78,0.00,,,0.00,VWS V14.01,2013-01-30 21:42:00,
2013-01-30 11:47:00,73.6,66.3,30.03,ESE,121,4.0,6.0,78,0.00,,,0.00,VWS V14.01,2013-01-30 21:47:00,
2013-01-30 11:52:00,73.3,66.0,30.03,ESE,111,7.0,8.0,78,0.00,,,0.00,VWS V14.01,2013-01-30 21:52:00,
2013-01-30 11:57:00,73.1,66.2,30.02,NE,51,9.0,11.0,79,0.00,,,0.00,VWS V14.01,2013-01-30 21:57:00,
2013-01-30 12:02:00,72.5,66.0,30.02,NE,41,3.0,4.0,80,0.00,,,0.00,VWS V14.01,2013-01-30 22:02:00,
2013-01-30 12:07:00,72.6,66.1,30.02,ESE,114,6.0,6.0,80,0.00,,,0.00,VWS V14.01,2013-01-30 22:07:00,
2013-01-30 12:12:00,72.7,66.2,30.02,East,97,6.0,6.0,80,0.00,,,0.00,VWS V14.01,2013-01-30 22:12:00,
2013-01-30 12:17:00,73.1,66.9,30.02,East,88,7.0,7.0,81,0.00,,,0.00,VWS V14.01,2013-01-30 22:17:00,
2013-01-30 12:22:00,72.7,66.2,30.02,ENE,64,6.0,7.0,80,0.00,,,0.00,VWS V14.01,2013-01-30 22:22:00,
2013-01-30 12:27:00,72.6,66.4,30.02,ESE,113,5.0,8.0,81,0.00,,,0.00,VWS V14.01,2013-01-30 22:27:00,
2013-01-30 12:33:00,72.6,66.8,30.01,ESE,102,7.0,7.0,82,0.00,,,0.00,VWS V14.01,2013-01-30 22:33:00,
2013-01-30 12:38:00,72.4,66.6,30.01,East,79,6.0,7.0,82,0.00,,,0.00,VWS V14.01,2013-01-30 22:38:00,
2013-01-30 12:43:00,72.4,66.2,30.01,East,84,5.0,5.0,81,0.00,,,0.00,VWS V14.01,2013-01-30 22:43:00,
2013-01-30 12:48:00,72.3,66.5,30.01,East,90,7.0,8.0,82,0.00,,,0.00,VWS V14.01,2013-01-30 22:48:00,
2013-01-30 12:53:00,72.5,66.3,30.01,ESE,105,9.0,9.0,81,0.00,,,0.00,VWS V14.01,2013-01-30 22:53:00,
2013-01-30 12:58:00,72.4,65.9,30.00,NE,54,5.0,6.0,80,0.00,,,0.00,VWS V14.01,2013-01-30 22:58:00,
2013-01-30 13:03:00,72.7,66.5,30.00,NE,55,9.0,9.0,81,0.00,,,0.00,VWS V14.01,2013-01-30 23:03:00,
2013-01-30 13:08:00,72.6,66.1,30.00,East,95,6.0,7.0,80,0.00,,,0.00,VWS V14.01,2013-01-30 23:08:00,
2013-01-30 13:13:00,72.6,66.1,30.00,ENE,76,5.0,6.0,80,0.00,,,0.00,VWS V14.01,2013-01-30 23:13:00,
2013-01-30 13:18:00,72.8,66.6,29.99,ESE,102,6.0,6.0,81,0.00,,,0.00,VWS V14.01,2013-01-30 23:18:00,
2013-01-30 13:23:00,73.0,66.8,29.99,East,99,7.0,7.0,81,0.00,,,0.00,VWS V14.01,2013-01-30 23:23:00,
2013-01-30 13:28:00,72.9,66.7,29.99,ENE,67,5.0,5.0,81,0.00,,,0.00,VWS V14.01,2013-01-30 23:28:00,
2013-01-30 13:34:00,72.6,66.8,29.99,ESE,113,11.0,11.0,82,0.00,,,0.00,VWS V14.01,2013-01-30 23:34:00,
2013-01-30 13:39:00,72.4,66.9,29.99,ESE,108,10.0,10.0,83,0.00,,,0.00,VWS V14.01,2013-01-30 23:39:00,
2013-01-30 13:44:00,72.4,66.9,29.99,ESE,123,7.0,9.0,83,0.00,,,0.00,VWS V14.01,2013-01-30 23:44:00,
2013-01-30 13:49:00,72.5,66.7,29.98,ESE,118,6.0,6.0,82,0.00,,,0.00,VWS V14.01,2013-01-30 23:49:00,
2013-01-30 13:54:00,72.0,66.6,29.98,East,97,10.0,10.0,83,0.00,,,0.00,VWS V14.01,2013-01-30 23:54:00,
2013-01-30 13:59:00,71.9,66.5,29.98,ENE,73,6.0,8.0,83,0.00,,,0.00,VWS V14.01,2013-01-30 23:59:00,
2013-01-30 14:04:00,71.9,66.5,29.98,ESE,114,9.0,10.0,83,0.00,,,0.00,VWS V14.01,2013-01-31 00:04:00,
2013-01-30 14:09:00,71.8,66.7,29.98,ENE,59,7.0,7.0,84,0.00,,,0.00,VWS V14.01,2013-01-31 00:09:00,
2013-01-30 14:14:00,71.6,66.5,29.98,East,93,6.0,6.0,84,0.00,,,0.00,VWS V14.01,2013-01-31 00:14:00,
2013-01-30 14:20:00,71.2,66.5,29.98,East,93,8.0,8.0,85,0.00,,,0.00,VWS V14.01,2013-01-31 00:20:00,
2013-01-30 14:25:00,70.7,66.7,29.98,ENE,68,7.0,7.0,87,0.01,,,0.01,VWS V14.01,2013-01-31 00:25:00,
2013-01-30 14:30:00,70.0,66.3,29.98,ESE,102,8.0,8.0,88,0.02,,,0.02,VWS V14.01,2013-01-31 00:30:00,
2013-01-30 14:35:00,69.9,66.5,29.98,ENE,59,5.0,6.0,89,0.02,,,0.02,VWS V14.01,2013-01-31 00:35:00,
2013-01-30 14:40:00,69.8,67.1,29.98,ENE,76,5.0,5.0,91,0.02,,,0.02,VWS V14.01,2013-01-31 00:40:00,
2013-01-30 14:45:00,69.8,66.7,29.98,ENE,71,4.0,5.0,90,0.02,,,0.02,VWS V14.01,2013-01-31 00:45:00,
2013-01-30 14:50:00,69.9,67.2,29.98,ESE,115,6.0,6.0,91,0.02,,,0.02,VWS V14.01,2013-01-31 00:50:00,
2013-01-30 14:55:00,69.8,67.1,29.98,East,94,6.0,9.0,91,0.02,,,0.02,VWS V14.01,2013-01-31 00:55:00,
2013-01-30 15:00:00,69.5,66.4,29.98,East,80,4.0,4.0,90,0.02,,,0.02,VWS V14.01,2013-01-31 01:00:00,
2013-01-30 15:05:00,69.6,66.5,29.98,ENE,73,9.0,9.0,90,0.02,,,0.02,VWS V14.01,2013-01-31 01:05:00,
2013-01-30 15:10:00,69.6,66.5,29.98,East,80,4.0,4.0,90,0.02,,,0.02,VWS V14.01,2013-01-31 01:10:00,
2013-01-30 15:15:00,69.7,66.6,29.98,ENE,68,4.0,6.0,90,0.02,,,0.02,VWS V14.01,2013-01-31 01:15:00,
2013-01-30 15:20:00,69.5,66.4,29.98,East,97,6.0,6.0,90,0.02,,,0.02,VWS V14.01,2013-01-31 01:20:00,
2013-01-30 15:25:00,69.5,66.4,29.98,East,92,5.0,5.0,90,0.02,,,0.02,VWS V14.01,2013-01-31 01:25:00,
2013-01-30 15:30:00,69.5,66.4,29.98,East,92,5.0,6.0,90,0.02,,,0.02,VWS V14.01,2013-01-31 01:30:00,
2013-01-30 15:36:00,69.5,66.4,29.98,ENE,69,5.0,5.0,90,0.00,,,0.02,VWS V14.01,2013-01-31 01:36:00,
2013-01-30 15:41:00,69.4,66.0,29.98,ENE,58,10.0,11.0,89,0.00,,,0.02,VWS V14.01,2013-01-31 01:41:00,
2013-01-30 15:46:00,69.3,65.9,29.98,ENE,71,8.0,8.0,89,0.00,,,0.02,VWS V14.01,2013-01-31 01:46:00,
2013-01-30 15:51:00,69.2,65.8,29.98,ENE,60,5.0,6.0,89,0.00,,,0.02,VWS V14.01,2013-01-31 01:51:00,
2013-01-30 15:56:00,69.4,66.0,29.98,ESE,112,6.0,7.0,89,0.00,,,0.02,VWS V14.01,2013-01-31 01:56:00,
2013-01-30 16:01:00,69.5,66.4,29.98,ENE,62,4.0,4.0,90,0.00,,,0.02,VWS V14.01,2013-01-31 02:01:00,
2013-01-30 16:06:00,69.3,65.9,29.98,NE,56,3.0,3.0,89,0.00,,,0.02,VWS V14.01,2013-01-31 02:06:00,
2013-01-30 16:11:00,69.2,65.8,29.98,ENE,71,4.0,6.0,89,0.00,,,0.02,VWS V14.01,2013-01-31 02:11:00,
2013-01-30 16:16:00,69.1,66.1,29.98,East,83,5.0,6.0,90,0.00,,,0.02,VWS V14.01,2013-01-31 02:16:00,
2013-01-30 16:21:00,69.1,66.1,29.98,East,79,5.0,5.0,90,0.00,,,0.02,VWS V14.01,2013-01-31 02:21:00,
2013-01-30 16:26:00,69.1,65.7,29.99,NE,52,8.0,8.0,89,0.00,,,0.02,VWS V14.01,2013-01-31 02:26:00,
2013-01-30 16:32:00,69.1,66.1,29.98,ENE,67,6.0,7.0,90,0.00,,,0.02,VWS V14.01,2013-01-31 02:32:00,
2013-01-30 16:37:00,69.1,66.1,29.99,East,86,4.0,4.0,90,0.00,,,0.02,VWS V14.01,2013-01-31 02:37:00,
2013-01-30 16:42:00,69.2,66.2,29.99,NE,51,3.0,3.0,90,0.00,,,0.02,VWS V14.01,2013-01-31 02:42:00,
2013-01-30 16:47:00,69.1,66.1,29.99,ENE,63,4.0,5.0,90,0.00,,,0.02,VWS V14.01,2013-01-31 02:47:00,
2013-01-30 16:52:00,69.1,66.4,29.99,NE,54,3.0,3.0,91,0.00,,,0.02,VWS V14.01,2013-01-31 02:52:00,
2013-01-30 16:57:00,68.9,66.2,29.99,East,92,6.0,6.0,91,0.00,,,0.02,VWS V14.01,2013-01-31 02:57:00,
2013-01-30 17:02:00,68.8,66.1,29.99,NE,46,4.0,4.0,91,0.00,,,0.02,VWS V14.01,2013-01-31 03:02:00,
2013-01-30 17:07:00,68.6,65.9,29.99,NE,51,2.0,3.0,91,0.00,,,0.02,VWS V14.01,2013-01-31 03:07:00,
2013-01-30 17:12:00,68.6,66.2,29.99,NNE,22,3.0,3.0,92,0.00,,,0.02,VWS V14.01,2013-01-31 03:12:00,
2013-01-30 17:17:00,68.6,66.2,30.00,NNE,25,2.0,2.0,92,0.00,,,0.02,VWS V14.01,2013-01-31 03:17:00,
2013-01-30 17:22:00,68.6,66.2,30.00,NE,52,4.0,4.0,92,0.00,,,0.02,VWS V14.01,2013-01-31 03:22:00,
2013-01-30 17:28:00,68.6,66.2,30.00,NNE,19,2.0,2.0,92,0.00,,,0.02,VWS V14.01,2013-01-31 03:28:00,
2013-01-30 17:33:00,68.6,66.2,30.00,ENE,73,4.0,4.0,92,0.00,,,0.02,VWS V14.01,2013-01-31 03:33:00,
2013-01-30 17:38:00,68.6,66.2,30.00,East,91,5.0,5.0,92,0.00,,,0.02,VWS V14.01,2013-01-31 03:38:00,
2013-01-30 17:43:00,68.5,65.8,29.99,NNE,19,5.0,5.0,91,0.00,,,0.02,VWS V14.01,2013-01-31 03:43:00,
2013-01-30 17:48:00,68.5,66.1,30.00,ENE,63,3.0,3.0,92,0.00,,,0.02,VWS V14.01,2013-01-31 03:48:00,
2013-01-30 17:53:00,68.4,66.0,30.00,NE,50,2.0,3.0,92,0.00,,,0.02,VWS V14.01,2013-01-31 03:53:00,
2013-01-30 17:58:00,68.4,66.0,30.00,ENE,61,5.0,5.0,92,0.00,,,0.02,VWS V14.01,2013-01-31 03:58:00,
2013-01-30 18:03:00,68.4,66.0,30.00,NE,52,5.0,6.0,92,0.00,,,0.02,VWS V14.01,2013-01-31 04:03:00,
2013-01-30 18:08:00,68.5,66.1,30.00,ENE,57,3.0,4.0,92,0.00,,,0.02,VWS V14.01,2013-01-31 04:08:00,
2013-01-30 18:13:00,68.5,66.1,30.00,NE,52,6.0,7.0,92,0.00,,,0.02,VWS V14.01,2013-01-31 04:13:00,
2013-01-30 18:18:00,68.6,65.9,30.00,NE,56,6.0,6.0,91,0.00,,,0.02,VWS V14.01,2013-01-31 04:18:00,
2013-01-30 18:23:00,68.7,66.0,30.00,NE,44,7.0,8.0,91,0.00,,,0.02,VWS V14.01,2013-01-31 04:23:00,
2013-01-30 18:29:00,68.7,66.0,30.00,ENE,65,8.0,8.0,91,0.00,,,0.02,VWS V14.01,2013-01-31 04:29:00,
2013-01-30 18:34:00,68.7,66.0,30.00,ENE,57,3.0,6.0,91,0.00,,,0.02,VWS V14.01,2013-01-31 04:34:00,
2013-01-30 18:39:00,68.7,66.0,30.00,East,87,4.0,4.0,91,0.00,,,0.02,VWS V14.01,2013-01-31 04:39:00,
2013-01-30 18:44:00,68.7,66.0,30.00,ENE,68,3.0,5.0,91,0.00,,,0.02,VWS V14.01,2013-01-31 04:44:00,
2013-01-30 18:49:00,68.7,66.0,30.00,ENE,78,4.0,4.0,91,0.00,,,0.02,VWS V14.01,2013-01-31 04:49:00,
2013-01-30 18:54:00,68.7,66.0,30.00,ENE,66,4.0,4.0,91,0.00,,,0.02,VWS V14.01,2013-01-31 04:54:00,
2013-01-30 18:59:00,68.7,65.7,30.00,ENE,57,6.0,6.0,90,0.00,,,0.02,VWS V14.01,2013-01-31 04:59:00,
2013-01-30 19:00:00,68.7,65.7,30.01,East,80,6.0,6.0,90,0.00,,,0.02,VWS V14.01,2013-01-31 05:00:00,
2013-01-30 19:03:00,68.7,65.7,30.01,ENE,77,4.0,4.0,90,0.00,,,0.02,VWS V14.01,2013-01-31 05:03:00,
2013-01-30 19:08:00,68.7,65.7,30.01,ENE,63,5.0,6.0,90,0.00,,,0.02,VWS V14.01,2013-01-31 05:08:00,
2013-01-30 19:13:00,68.8,65.8,30.01,ENE,64,3.0,6.0,90,0.00,,,0.02,VWS V14.01,2013-01-31 05:13:00,
2013-01-30 19:18:00,68.8,65.4,30.01,NE,54,3.0,4.0,89,0.00,,,0.02,VWS V14.01,2013-01-31 05:18:00,
2013-01-30 19:23:00,68.9,65.5,30.01,ENE,58,6.0,6.0,89,0.00,,,0.02,VWS V14.01,2013-01-31 05:23:00,
2013-01-30 19:28:00,68.9,65.5,30.02,NE,36,3.0,4.0,89,0.00,,,0.02,VWS V14.01,2013-01-31 05:28:00,
2013-01-30 19:33:00,68.9,65.8,30.02,NE,40,1.0,2.0,90,0.00,,,0.02,VWS V14.01,2013-01-31 05:33:00,
2013-01-30 19:38:00,68.8,65.4,30.02,NE,46,2.0,2.0,89,0.00,,,0.02,VWS V14.01,2013-01-31 05:38:00,
2013-01-30 19:43:00,68.8,65.4,30.02,NNE,33,7.0,8.0,89,0.00,,,0.02,VWS V14.01,2013-01-31 05:43:00,
2013-01-30 19:48:00,68.8,65.4,30.02,NE,44,4.0,4.0,89,0.00,,,0.02,VWS V14.01,2013-01-31 05:48:00,
2013-01-30 19:53:00,68.8,65.8,30.02,NE,47,1.0,2.0,90,0.00,,,0.02,VWS V14.01,2013-01-31 05:53:00,
2013-01-30 19:59:00,68.8,65.8,30.02,NE,35,4.0,5.0,90,0.00,,,0.02,VWS V14.01,2013-01-31 05:59:00,
2013-01-30 20:04:00,68.8,65.8,30.03,NE,50,3.0,4.0,90,0.00,,,0.02,VWS V14.01,2013-01-31 06:04:00,
2013-01-30 20:09:00,68.9,65.8,30.03,ENE,73,2.0,2.0,90,0.00,,,0.02,VWS V14.01,2013-01-31 06:09:00,
2013-01-30 20:14:00,68.8,65.8,30.03,NE,41,1.0,2.0,90,0.00,,,0.02,VWS V14.01,2013-01-31 06:14:00,
2013-01-30 20:19:00,68.8,65.8,30.03,East,95,6.0,6.0,90,0.00,,,0.02,VWS V14.01,2013-01-31 06:19:00,
2013-01-30 20:24:00,68.8,65.8,30.03,NE,35,7.0,7.0,90,0.00,,,0.02,VWS V14.01,2013-01-31 06:24:00,
2013-01-30 20:29:00,68.8,65.4,30.03,NNE,18,5.0,5.0,89,0.00,,,0.02,VWS V14.01,2013-01-31 06:29:00,
2013-01-30 20:34:00,69.0,65.6,30.03,NE,42,7.0,7.0,89,0.00,,,0.02,VWS V14.01,2013-01-31 06:34:00,
2013-01-30 20:39:00,68.9,65.5,30.04,NNE,28,5.0,6.0,89,0.00,,,0.02,VWS V14.01,2013-01-31 06:39:00,
2013-01-30 20:44:00,68.8,65.4,30.04,NE,51,6.0,7.0,89,0.00,,,0.02,VWS V14.01,2013-01-31 06:44:00,
2013-01-30 20:49:00,68.8,65.4,30.04,ENE,57,4.0,5.0,89,0.00,,,0.02,VWS V14.01,2013-01-31 06:49:00,
2013-01-30 20:54:00,68.8,65.4,30.04,NNE,28,4.0,4.0,89,0.00,,,0.02,VWS V14.01,2013-01-31 06:54:00,
2013-01-30 21:00:00,68.8,65.8,30.04,NNE,24,4.0,4.0,90,0.00,,,0.02,VWS V14.01,2013-01-31 07:00:00,
2013-01-30 21:05:00,68.8,65.8,30.04,ENE,69,5.0,7.0,90,0.00,,,0.02,VWS V14.01,2013-01-31 07:05:00,
2013-01-30 21:10:00,68.8,65.8,30.04,NE,49,4.0,5.0,90,0.00,,,0.02,VWS V14.01,2013-01-31 07:10:00,
2013-01-30 21:15:00,68.8,65.8,30.04,NNE,14,5.0,6.0,90,0.00,,,0.02,VWS V14.01,2013-01-31 07:15:00,
2013-01-30 21:20:00,68.8,65.8,30.04,ENE,71,3.0,3.0,90,0.00,,,0.02,VWS V14.01,2013-01-31 07:20:00,
2013-01-30 21:25:00,68.8,65.8,30.04,ENE,59,3.0,3.0,90,0.00,,,0.02,VWS V14.01,2013-01-31 07:25:00,
2013-01-30 21:30:00,68.9,65.8,30.04,NE,45,4.0,5.0,90,0.00,,,0.02,VWS V14.01,2013-01-31 07:30:00,
2013-01-30 21:35:00,68.8,65.8,30.04,NNE,27,5.0,5.0,90,0.00,,,0.02,VWS V14.01,2013-01-31 07:35:00,
2013-01-30 21:40:00,68.8,65.8,30.04,ENE,77,4.0,5.0,90,0.00,,,0.02,VWS V14.01,2013-01-31 07:40:00,
2013-01-30 21:45:00,68.9,65.5,30.05,NE,44,5.0,6.0,89,0.00,,,0.02,VWS V14.01,2013-01-31 07:45:00,
2013-01-30 21:50:00,68.9,65.5,30.05,NE,40,7.0,7.0,89,0.00,,,0.02,VWS V14.01,2013-01-31 07:50:00,
2013-01-30 21:55:00,68.8,65.8,30.05,ENE,71,8.0,8.0,90,0.00,,,0.02,VWS V14.01,2013-01-31 07:55:00,
2013-01-30 22:00:00,68.7,65.7,30.05,NE,47,5.0,6.0,90,0.00,,,0.02,VWS V14.01,2013-01-31 08:00:00,
2013-01-30 22:05:00,68.7,65.7,30.05,NE,49,5.0,5.0,90,0.00,,,0.02,VWS V14.01,2013-01-31 08:05:00,
2013-01-30 22:10:00,68.6,65.6,30.05,NNE,19,5.0,5.0,90,0.00,,,0.02,VWS V14.01,2013-01-31 08:10:00,
2013-01-30 22:16:00,68.6,65.6,30.05,NE,38,5.0,5.0,90,0.00,,,0.02,VWS V14.01,2013-01-31 08:16:00,
2013-01-30 22:21:00,68.7,65.7,30.05,NE,50,4.0,4.0,90,0.00,,,0.02,VWS V14.01,2013-01-31 08:21:00,
2013-01-30 22:26:00,68.7,65.7,30.05,NNE,30,5.0,5.0,90,0.00,,,0.02,VWS V14.01,2013-01-31 08:26:00,
2013-01-30 22:31:00,68.7,65.7,30.05,NE,40,8.0,10.0,90,0.00,,,0.02,VWS V14.01,2013-01-31 08:31:00,
2013-01-30 22:36:00,68.8,65.4,30.05,NNE,33,6.0,8.0,89,0.00,,,0.02,VWS V14.01,2013-01-31 08:36:00,
2013-01-30 22:41:00,68.8,65.1,30.05,NNE,17,6.0,7.0,88,0.00,,,0.02,VWS V14.01,2013-01-31 08:41:00,
2013-01-30 22:46:00,68.8,65.1,30.04,NNE,24,8.0,8.0,88,0.00,,,0.02,VWS V14.01,2013-01-31 08:46:00,
2013-01-30 22:51:00,68.8,65.1,30.04,NE,43,9.0,9.0,88,0.00,,,0.02,VWS V14.01,2013-01-31 08:51:00,
2013-01-30 22:56:00,68.7,65.0,30.04,NNE,26,8.0,8.0,88,0.00,,,0.02,VWS V14.01,2013-01-31 08:56:00,
2013-01-30 23:01:00,68.6,64.6,30.04,NNE,26,3.0,5.0,87,0.00,,,0.02,VWS V14.01,2013-01-31 09:01:00,
2013-01-30 23:06:00,68.6,64.6,30.04,NE,54,1.0,2.0,87,0.00,,,0.02,VWS V14.01,2013-01-31 09:06:00,
2013-01-30 23:11:00,68.6,64.2,30.04,ENE,73,2.0,3.0,86,0.00,,,0.02,VWS V14.01,2013-01-31 09:11:00,
2013-01-30 23:16:00,68.6,64.2,30.04,East,87,2.0,2.0,86,0.00,,,0.02,VWS V14.01,2013-01-31 09:16:00,
2013-01-30 23:21:00,68.6,63.9,30.04,ENE,62,1.0,1.0,85,0.00,,,0.02,VWS V14.01,2013-01-31 09:21:00,
2013-01-30 23:26:00,68.6,63.9,30.04,NE,44,5.0,5.0,85,0.00,,,0.02,VWS V14.01,2013-01-31 09:26:00,
2013-01-30 23:31:00,68.7,64.0,30.04,NNE,28,4.0,4.0,85,0.00,,,0.02,VWS V14.01,2013-01-31 09:31:00,
2013-01-30 23:37:00,68.6,63.9,30.04,NNE,24,4.0,4.0,85,0.00,,,0.02,VWS V14.01,2013-01-31 09:37:00,
2013-01-30 23:42:00,68.6,63.9,30.04,NE,44,2.0,3.0,85,0.00,,,0.02,VWS V14.01,2013-01-31 09:42:00,
2013-01-30 23:47:00,68.5,64.2,30.03,NE,55,2.0,2.0,86,0.00,,,0.02,VWS V14.01,2013-01-31 09:47:00,
2013-01-30 23:52:00,68.4,64.1,30.04,NE,53,3.0,5.0,86,0.00,,,0.02,VWS V14.01,2013-01-31 09:52:00,
2013-01-30 23:57:00,68.4,63.7,30.03,NE,38,9.0,10.0,85,0.00,,,0.02,VWS V14.01,2013-01-31 09:57:00,